Aérodrome :
LOGIN :

S'inscrire | Disclaimer

   EN    FR    IT 

 










Légende :    VFR   VFR Marginal   IFR   IFR Intensif   IFR Très Intensif
Visi : 
Plafond : 
>= 8 km
>= 3000ft
5 à 8 km
1000 à 3000 ft
1500m à 5 km
500 à 1000 ft
800 à 1500m
200 à 500 ft
< 800m
< 200 ft
Symboles :   Orages  Brouillard  Fortes neiges  Fortes précipitations  Vent > 20 kt
SIGMETs :   Divers  Orages  Givrage  Turbulence  Onde Orograph.  Cendres Volcan.







- Altitude de l'aérodrome : 49 ft
- Code IATA : SEN
- Voir les cartes d'approche


EGMC - Southend

DERNIER METAR :
  • 161450Z 27016G26KT 9999 FEW046 07/M02 Q0995

METARs EXPIRÉS :
  • 161420Z 26017KT 9999 SCT048 07/M03 Q0995
  • 161350Z 27021KT 9999 SCT043 07/M02 Q0995
  • 161320Z 27020KT 9999 SCT042 07/M02 Q0995
  • 161250Z 26018KT 9999 SCT036 07/M01 Q0995
  • 161220Z 26020KT 9999 SCT034 06/M01 Q0995

TAF TAF EGMC
Valide du 16 à 15h jusqu'au 17 à 00h UTC


161401Z 1615/1624 25016KT 9999 FEW025
TEMPO 1615/1621 26020G32KT
PROB30
TEMPO 1615/1621 7000 SHGS SHRASN BKN014 BKN020CB
PROB30
TEMPO 1621/1624 26020G32KT 4000 -SHSN BKN009
Pas de NOTAMs connus pour ce terrain.
2 SIGMETs publiés pour la FIR London (EGTT) :
 
Turbulence forte
EGTT SIGMET 04 VALID 161500/161900 EGRR
EGTT LONDON FIR SEV TURB FCST WI N5040 E00128 - N5000 W00015 - N4850 W00800 - N5100 W00800 - N5220 W00530 - N5500 W00530 - N5500 W00216 - N5225 W00329 - N5038 W00249 - N5040 E00128 SFC/FL060 STNR NC=
Turbulence forte
EGTT SIGMET 03 VALID 161100/161500 EGRR
EGTT LONDON FIR SEV TURB FCST WI N5000 W00015 - N4850 W00800 - N5100 W00800 - N5220 W00530 - N5500 W00530 - N5500 W00240 - N5041 W00323 - N5100 E00128 - N5040 E00128 - N5000 W00015 SFC/FL060 STNR NC=



MET'MAP, la Météo Aéronautique d'un coup d'oeil ! - Copyright ORBIFLY Décembre 2007 - Disclaimer

ORBIFLY MET'MAP TEAM :

Programmation & Développement : Alexandra Zaïnal
Conception & Développement : Baudouin d'Aumeries
Co-Programmation & Développement : Marc-Olivier Méhu
Soutien technique & logistique : Manuel Goepfert

Contact : metmap@orbifly.com




SOURCES & CREDITS :

   NOAA